createdAt,value
2022-09-23T00:01:10.123Z,99.90
2022-09-23T00:03:41.430Z,99.90
2022-09-23T00:06:11.481Z,99.90
2022-09-23T00:08:39.115Z,99.90
2022-09-23T00:11:08.524Z,99.90
2022-09-23T00:13:36.894Z,99.90
2022-09-23T00:16:09.006Z,99.90
2022-09-23T00:18:36.853Z,99.90
2022-09-23T00:21:05.720Z,99.90
2022-09-23T00:23:33.207Z,99.90
2022-09-23T00:26:02.456Z,99.90
2022-09-23T00:28:30.288Z,99.90
2022-09-23T00:30:57.359Z,99.90
2022-09-23T00:33:24.127Z,99.90
2022-09-23T00:35:51.036Z,99.90
2022-09-23T00:38:17.771Z,99.90
2022-09-23T00:40:46.135Z,99.90
2022-09-23T00:43:14.874Z,99.90
2022-09-23T00:45:50.768Z,99.90
2022-09-23T00:48:20.737Z,99.90
2022-09-23T00:50:53.449Z,99.90
2022-09-23T00:53:23.700Z,99.90
2022-09-23T00:55:55.908Z,99.90
2022-09-23T00:58:33.824Z,99.90
2022-09-23T01:01:01.235Z,99.90
2022-09-23T01:03:28.505Z,99.90
2022-09-23T01:05:57.063Z,99.90
2022-09-23T01:08:26.717Z,99.90
2022-09-23T01:11:14.700Z,99.90
2022-09-23T01:13:59.553Z,99.90
2022-09-23T01:16:38.918Z,99.90
2022-09-23T01:19:36.661Z,99.90
2022-09-23T01:22:28.109Z,99.90
2022-09-23T01:25:19.780Z,99.90
2022-09-23T01:28:05.421Z,99.90
2022-09-23T01:30:57.410Z,99.90
2022-09-23T01:33:43.841Z,99.90
2022-09-23T01:36:19.068Z,99.90
2022-09-23T01:39:01.577Z,99.90
2022-09-23T01:41:43.914Z,99.90
2022-09-23T01:44:30.578Z,99.90
2022-09-23T01:47:14.922Z,99.90
2022-09-23T01:49:52.013Z,99.90
2022-09-23T01:52:24.706Z,99.90
2022-09-23T01:55:01.095Z,99.90
2022-09-23T01:57:53.248Z,99.90
2022-09-23T02:00:22.596Z,99.90
2022-09-23T02:02:54.408Z,99.90
2022-09-23T02:05:54.491Z,99.90
2022-09-23T02:08:27.960Z,99.90
2022-09-23T02:11:18.153Z,99.90
2022-09-23T02:13:58.283Z,99.90
2022-09-23T02:16:35.980Z,99.90
2022-09-23T02:19:11.537Z,99.90
2022-09-23T02:21:44.725Z,99.90
2022-09-23T02:24:19.024Z,99.90
2022-09-23T02:26:55.901Z,99.90
2022-09-23T02:29:36.590Z,99.90
2022-09-23T02:32:40.242Z,99.90
2022-09-23T02:35:19.204Z,99.90
2022-09-23T02:38:02.585Z,99.90
2022-09-23T02:40:38.059Z,99.90
2022-09-23T02:43:23.516Z,99.90
2022-09-23T02:45:50.641Z,99.90
2022-09-23T02:48:25.881Z,99.90
2022-09-23T02:50:53.314Z,99.90
2022-09-23T02:53:22.355Z,99.90
2022-09-23T02:55:50.093Z,99.90
2022-09-23T02:58:17.501Z,99.90
2022-09-23T03:01:07.499Z,99.90
2022-09-23T03:03:37.299Z,99.90
2022-09-23T03:06:15.998Z,99.90
2022-09-23T03:08:51.367Z,99.90
2022-09-23T03:11:18.651Z,99.90
2022-09-23T03:14:00.181Z,99.90
2022-09-23T03:16:47.939Z,99.90
2022-09-23T03:19:23.933Z,99.90
2022-09-23T03:22:03.535Z,99.90
2022-09-23T03:24:32.876Z,99.90
2022-09-23T03:27:04.077Z,99.90
2022-09-23T03:29:32.763Z,99.90
2022-09-23T03:31:59.994Z,99.90
2022-09-23T03:34:33.835Z,99.90
2022-09-23T03:37:37.726Z,99.90
2022-09-23T03:40:04.497Z,99.90
2022-09-23T03:42:33.143Z,99.90
2022-09-23T03:45:01.265Z,99.90
2022-09-23T03:47:28.378Z,99.90
2022-09-23T03:49:56.695Z,99.90
2022-09-23T03:52:25.001Z,99.90
2022-09-23T03:54:52.794Z,99.90
2022-09-23T03:57:23.712Z,99.90
2022-09-23T03:59:51.280Z,99.90
2022-09-23T04:02:20.140Z,99.90
2022-09-23T04:04:47.245Z,99.90
2022-09-23T04:07:14.252Z,99.90
2022-09-23T04:09:41.512Z,99.90
2022-09-23T04:12:11.735Z,99.90
2022-09-23T04:14:39.095Z,99.90
2022-09-23T04:17:05.962Z,99.90
2022-09-23T04:19:32.765Z,99.90
2022-09-23T04:21:59.597Z,99.90
2022-09-23T04:24:26.764Z,99.90
2022-09-23T04:26:55.230Z,99.90
2022-09-23T04:29:22.691Z,99.90
2022-09-23T04:31:52.977Z,99.90
2022-09-23T04:34:20.595Z,99.90
2022-09-23T04:36:48.953Z,99.90
2022-09-23T04:39:17.054Z,99.90
2022-09-23T04:41:44.356Z,99.90
2022-09-23T04:44:19.698Z,99.90
2022-09-23T04:46:49.615Z,99.90
2022-09-23T04:49:16.640Z,99.90
2022-09-23T04:51:43.699Z,99.90
2022-09-23T04:54:12.093Z,99.90
2022-09-23T04:56:39.862Z,99.90
2022-09-23T04:59:07.947Z,99.90
2022-09-23T05:01:36.230Z,99.90
2022-09-23T05:04:06.203Z,99.90
2022-09-23T05:06:35.114Z,99.90
2022-09-23T05:09:06.940Z,99.90
2022-09-23T05:11:34.633Z,99.90
2022-09-23T05:14:01.762Z,99.90
2022-09-23T05:16:29.652Z,99.90
2022-09-23T05:18:57.525Z,99.90
2022-09-23T05:21:28.394Z,99.90
2022-09-23T05:23:58.828Z,99.90
2022-09-23T05:26:28.054Z,99.90
2022-09-23T05:28:56.004Z,99.90
2022-09-23T05:31:27.934Z,99.90
2022-09-23T05:34:03.460Z,99.90
2022-09-23T05:36:37.578Z,99.90
2022-09-23T05:39:05.867Z,99.90
2022-09-23T05:41:33.837Z,99.90
2022-09-23T05:44:01.039Z,99.90
2022-09-23T05:46:29.925Z,99.90
2022-09-23T05:49:02.211Z,99.90
2022-09-23T05:51:31.068Z,99.90
2022-09-23T05:53:58.441Z,99.90
2022-09-23T05:56:27.664Z,99.90
2022-09-23T05:58:56.733Z,99.90
2022-09-23T06:01:27.049Z,99.90
2022-09-23T06:03:55.963Z,99.90
2022-09-23T06:06:37.410Z,99.90
2022-09-23T06:09:04.708Z,99.90
2022-09-23T06:11:35.191Z,99.90
2022-09-23T06:14:02.827Z,99.90
2022-09-23T06:16:32.763Z,99.90
2022-09-23T06:19:05.846Z,99.90
2022-09-23T06:21:35.161Z,99.90
2022-09-23T06:24:02.994Z,99.90
2022-09-23T06:26:33.551Z,99.90
2022-09-23T06:29:02.609Z,99.90
2022-09-23T06:31:29.779Z,99.90
2022-09-23T06:34:08.554Z,99.90
2022-09-23T06:36:43.888Z,99.90
2022-09-23T06:39:12.215Z,99.90
2022-09-23T06:41:39.323Z,99.90
2022-09-23T06:44:11.781Z,99.90
2022-09-23T06:46:38.631Z,99.90
2022-09-23T06:49:05.400Z,99.90
2022-09-23T06:51:32.270Z,99.90
2022-09-23T06:53:59.098Z,99.90
2022-09-23T06:56:25.864Z,99.90
2022-09-23T06:58:53.105Z,99.90
2022-09-23T07:01:20.138Z,99.90
2022-09-23T07:03:48.288Z,99.90
2022-09-23T07:06:15.674Z,99.90
2022-09-23T07:08:44.884Z,99.90
2022-09-23T07:11:13.413Z,99.90
2022-09-23T07:13:42.409Z,99.90
2022-09-23T07:16:11.017Z,99.90
2022-09-23T07:18:38.356Z,99.90
2022-09-23T07:21:17.410Z,99.90
2022-09-23T07:23:48.823Z,99.90
2022-09-23T07:26:16.603Z,99.90
2022-09-23T07:28:43.527Z,99.90
2022-09-23T07:31:13.221Z,99.90
2022-09-23T07:33:43.671Z,99.90
2022-09-23T07:36:15.065Z,99.90
2022-09-23T07:38:45.514Z,99.90
2022-09-23T07:41:15.416Z,99.90
2022-09-23T07:43:42.250Z,99.90
2022-09-23T07:46:12.624Z,99.90
2022-09-23T07:48:39.443Z,99.90
2022-09-23T07:51:20.226Z,99.90
2022-09-23T07:53:51.680Z,99.90
2022-09-23T07:56:19.943Z,99.90
2022-09-23T07:58:59.836Z,99.90
2022-09-23T08:01:29.514Z,99.90
2022-09-23T08:04:10.530Z,99.90
2022-09-23T08:06:41.369Z,99.90
2022-09-23T08:09:08.188Z,99.90
2022-09-23T08:11:36.426Z,99.90
2022-09-23T08:14:03.080Z,99.90
2022-09-23T08:16:29.836Z,99.90
2022-09-23T08:18:56.807Z,99.90
2022-09-23T08:21:23.545Z,99.90
2022-09-23T08:23:51.708Z,99.90
2022-09-23T08:26:22.132Z,99.90
2022-09-23T08:28:50.339Z,99.90
2022-09-23T08:31:17.286Z,99.90
2022-09-23T08:33:44.408Z,99.90
2022-09-23T08:36:11.415Z,99.90
2022-09-23T08:38:38.154Z,99.90
2022-09-23T08:41:43.452Z,99.90
2022-09-23T08:44:17.688Z,99.90
2022-09-23T08:46:53.183Z,99.90
2022-09-23T08:49:36.623Z,99.90
2022-09-23T08:52:14.584Z,99.90
2022-09-23T08:54:41.347Z,99.90
2022-09-23T08:57:23.016Z,99.90
2022-09-23T08:59:50.271Z,99.90
2022-09-23T09:02:22.821Z,99.90
2022-09-23T09:04:56.500Z,99.90
2022-09-23T09:07:36.769Z,99.90
2022-09-23T09:10:26.768Z,99.90
2022-09-23T09:13:10.831Z,99.90
2022-09-23T09:16:23.869Z,99.90
2022-09-23T09:19:08.631Z,99.90
2022-09-23T09:21:39.881Z,99.90
2022-09-23T09:24:16.884Z,99.90
2022-09-23T09:26:43.665Z,99.90
2022-09-23T09:29:35.832Z,99.90
2022-09-23T09:32:16.736Z,99.90
2022-09-23T09:35:18.743Z,99.90
2022-09-23T09:37:53.243Z,99.90
2022-09-23T09:40:20.763Z,99.90
2022-09-23T09:42:50.235Z,99.90
2022-09-23T09:46:01.654Z,99.90
2022-09-23T09:48:54.299Z,99.90
2022-09-23T09:51:24.130Z,99.90
2022-09-23T09:53:55.948Z,99.90
2022-09-23T09:56:31.648Z,99.90
2022-09-23T09:59:01.879Z,99.90
2022-09-23T10:01:35.191Z,99.90
2022-09-23T10:04:05.868Z,99.90
2022-09-23T10:06:34.582Z,99.90
2022-09-23T10:09:04.642Z,99.90
2022-09-23T10:11:32.590Z,99.90
2022-09-23T10:14:18.576Z,99.90
2022-09-23T10:16:50.008Z,99.50
2022-09-23T10:19:27.090Z,99.20
2022-09-23T10:21:58.600Z,99.50
2022-09-23T10:24:32.092Z,98.30
2022-09-23T10:27:07.820Z,98.50
2022-09-23T10:29:39.088Z,98.60
2022-09-23T10:32:36.358Z,96.50
2022-09-23T10:35:09.041Z,97.00
2022-09-23T10:37:41.442Z,98.40
2022-09-23T10:40:35.630Z,96.90
2022-09-23T10:43:42.339Z,97.00
2022-09-23T10:46:38.432Z,96.90
2022-09-23T10:49:31.333Z,95.90
2022-09-23T10:52:03.931Z,96.00
2022-09-23T10:55:09.199Z,96.20
2022-09-23T10:57:44.948Z,96.70
2022-09-23T11:00:22.558Z,95.70
2022-09-23T11:03:19.807Z,95.10
2022-09-23T11:06:02.716Z,96.20
2022-09-23T11:08:59.184Z,94.40
2022-09-23T11:11:35.799Z,94.60
2022-09-23T11:14:30.659Z,93.80
2022-09-23T11:17:25.899Z,95.00
2022-09-23T11:20:11.473Z,94.10
2022-09-23T11:22:53.321Z,94.70
2022-09-23T11:25:54.576Z,92.00
2022-09-23T11:28:29.420Z,93.10
2022-09-23T11:31:21.258Z,93.80
2022-09-23T11:33:54.227Z,92.80
2022-09-23T11:36:34.090Z,92.50
2022-09-23T11:39:11.417Z,91.20
2022-09-23T11:41:43.112Z,89.50
2022-09-23T11:44:20.056Z,89.50
2022-09-23T11:46:58.650Z,92.50
2022-09-23T11:49:30.002Z,90.20
2022-09-23T11:52:02.605Z,89.60
2022-09-23T11:54:38.864Z,90.50
2022-09-23T11:57:11.387Z,89.90
2022-09-23T12:02:30.908Z,88.00
2022-09-23T12:05:11.163Z,87.90
2022-09-23T12:08:04.432Z,91.00
2022-09-23T12:11:11.859Z,85.90
2022-09-23T12:14:21.180Z,85.40
2022-09-23T12:17:02.971Z,80.90
2022-09-23T12:19:55.422Z,78.10
2022-09-23T12:22:37.648Z,74.50
2022-09-23T12:25:10.406Z,73.00
2022-09-23T12:27:43.803Z,77.00
2022-09-23T12:30:32.363Z,73.30
2022-09-23T12:33:16.726Z,69.40
2022-09-23T12:35:45.929Z,70.00
2022-09-23T12:38:25.676Z,67.60
2022-09-23T12:40:54.970Z,70.00
2022-09-23T12:43:30.993Z,67.40
2022-09-23T12:46:17.953Z,71.10
2022-09-23T12:49:00.579Z,72.80
2022-09-23T12:51:33.755Z,74.20
2022-09-23T12:54:22.316Z,71.40
2022-09-23T12:56:52.219Z,73.00
2022-09-23T12:59:27.221Z,74.30
2022-09-23T13:01:54.591Z,76.70
2022-09-23T13:04:53.191Z,72.20
2022-09-23T13:07:29.945Z,76.90
2022-09-23T13:10:06.639Z,75.20
2022-09-23T13:12:38.951Z,72.20
2022-09-23T13:15:18.123Z,62.70
2022-09-23T13:17:47.794Z,62.50
2022-09-23T13:20:38.887Z,65.80
2022-09-23T13:23:17.088Z,60.80
2022-09-23T13:25:44.604Z,58.90
2022-09-23T13:28:38.992Z,61.50
2022-09-23T13:31:13.706Z,61.00
2022-09-23T13:33:47.190Z,56.10
2022-09-23T13:36:16.906Z,55.00
2022-09-23T13:38:46.550Z,51.70
2022-09-23T13:41:19.762Z,51.60
2022-09-23T13:43:53.651Z,52.00
2022-09-23T13:46:27.036Z,47.70
2022-09-23T13:48:55.186Z,50.90
2022-09-23T13:51:29.357Z,48.60
2022-09-23T13:53:58.884Z,48.40
2022-09-23T13:56:28.255Z,48.80
2022-09-23T13:59:13.898Z,49.90
2022-09-23T14:01:40.772Z,48.40
2022-09-23T14:04:26.454Z,53.30
2022-09-23T14:06:54.482Z,52.50
2022-09-23T14:09:27.300Z,51.50
2022-09-23T14:11:57.149Z,52.50
2022-09-23T14:14:24.241Z,51.80
2022-09-23T14:16:52.059Z,51.30
2022-09-23T14:19:21.795Z,54.30
2022-09-23T14:21:51.299Z,52.30
2022-09-23T14:24:34.234Z,54.40
2022-09-23T14:27:07.483Z,57.60
2022-09-23T14:29:40.073Z,58.50
2022-09-23T14:32:20.973Z,62.90
2022-09-23T14:35:17.894Z,65.90
2022-09-23T14:38:05.488Z,69.00
2022-09-23T14:40:38.778Z,65.80
2022-09-23T14:43:24.175Z,64.90
2022-09-23T14:45:57.322Z,64.20
2022-09-23T14:48:33.262Z,63.20
2022-09-23T14:51:10.803Z,63.20
2022-09-23T14:53:45.708Z,59.70
2022-09-23T14:56:22.968Z,61.60
2022-09-23T14:58:56.238Z,65.70
2022-09-23T15:01:27.869Z,71.40
2022-09-23T15:03:56.034Z,72.00
2022-09-23T15:06:23.343Z,74.70
2022-09-23T15:08:51.667Z,69.30
2022-09-23T15:11:18.738Z,70.70
2022-09-23T15:13:52.683Z,73.90
2022-09-23T15:16:28.004Z,73.90
2022-09-23T15:18:57.761Z,78.90
2022-09-23T15:21:30.382Z,84.80
2022-09-23T15:23:57.832Z,83.60
2022-09-23T15:26:40.606Z,82.40
2022-09-23T15:29:10.577Z,87.90
2022-09-23T15:31:37.696Z,87.50
2022-09-23T15:34:08.869Z,89.60
2022-09-23T15:36:39.588Z,90.00
2022-09-23T15:39:08.618Z,93.00
2022-09-23T15:41:35.456Z,93.60
2022-09-23T15:44:16.380Z,95.20
2022-09-23T15:46:49.199Z,93.80
2022-09-23T15:49:45.954Z,95.30
2022-09-23T15:52:16.304Z,95.00
2022-09-23T15:54:43.943Z,94.30
2022-09-23T15:57:11.162Z,92.30
2022-09-23T15:59:38.212Z,94.00
2022-09-23T16:02:15.676Z,92.00
2022-09-23T16:04:42.503Z,94.40
2022-09-23T16:07:16.427Z,92.80
2022-09-23T16:09:43.341Z,93.50
2022-09-23T16:12:12.089Z,93.90
2022-09-23T16:14:41.671Z,93.70
2022-09-23T16:17:13.074Z,92.20
2022-09-23T16:19:40.003Z,93.10
2022-09-23T16:22:06.843Z,96.70
2022-09-23T16:24:33.721Z,96.20
2022-09-23T16:27:03.595Z,98.20
2022-09-23T16:29:30.348Z,98.50
2022-09-23T16:31:57.207Z,99.90
2022-09-23T16:34:23.961Z,99.90
2022-09-23T16:36:50.716Z,99.90
2022-09-23T16:39:19.961Z,99.90
2022-09-23T16:41:47.627Z,99.90
2022-09-23T16:44:16.223Z,99.90
2022-09-23T16:46:44.052Z,99.90
2022-09-23T16:49:14.163Z,99.90
2022-09-23T16:51:41.039Z,99.90
2022-09-23T16:54:12.795Z,99.90
2022-09-23T16:56:44.205Z,99.90
2022-09-23T16:59:15.059Z,99.90
2022-09-23T17:02:01.081Z,99.90
2022-09-23T17:04:28.053Z,99.90
2022-09-23T17:06:55.973Z,99.90
2022-09-23T17:09:25.952Z,99.90
2022-09-23T17:12:11.296Z,99.90
2022-09-23T17:14:39.256Z,99.90
2022-09-23T17:17:06.640Z,99.90
2022-09-23T17:19:34.537Z,99.90
2022-09-23T17:22:01.314Z,99.90
2022-09-23T17:24:28.064Z,99.90
2022-09-23T17:26:54.996Z,99.90
2022-09-23T17:29:21.724Z,99.90
2022-09-23T17:31:48.525Z,99.90
2022-09-23T17:34:19.353Z,99.90
2022-09-23T17:36:46.378Z,99.90
2022-09-23T17:39:13.897Z,99.90
2022-09-23T17:41:40.630Z,99.90
2022-09-23T17:44:10.990Z,99.90
2022-09-23T17:46:37.742Z,99.90
2022-09-23T17:49:07.621Z,99.90
2022-09-23T17:51:34.490Z,99.90
2022-09-23T17:54:01.241Z,99.90
2022-09-23T17:56:32.695Z,99.90
2022-09-23T17:59:01.907Z,99.90
2022-09-23T18:01:31.876Z,99.90
2022-09-23T18:04:00.836Z,99.90
2022-09-23T18:06:31.702Z,99.90
2022-09-23T18:09:06.539Z,99.90
2022-09-23T18:11:36.494Z,99.90
2022-09-23T18:14:11.855Z,99.90
2022-09-23T18:16:40.664Z,99.90
2022-09-23T18:19:10.385Z,99.90
2022-09-23T18:21:41.404Z,99.90
2022-09-23T18:26:59.549Z,99.90
2022-09-23T18:29:26.616Z,99.90
2022-09-23T18:31:53.632Z,99.90
2022-09-23T18:34:20.661Z,99.90
2022-09-23T18:36:47.647Z,99.90
2022-09-23T18:39:15.163Z,99.90
2022-09-23T18:41:42.325Z,99.90
2022-09-23T18:44:09.415Z,99.90
2022-09-23T18:46:36.503Z,99.90
2022-09-23T18:49:22.153Z,99.90
2022-09-23T18:51:52.240Z,99.90
2022-09-23T18:54:22.317Z,99.90
2022-09-23T18:56:54.206Z,99.90
2022-09-23T18:59:24.671Z,99.90
2022-09-23T19:01:51.920Z,99.90
2022-09-23T19:04:20.632Z,99.90
2022-09-23T19:06:48.176Z,99.90
2022-09-23T19:09:16.232Z,99.90
2022-09-23T19:11:44.296Z,99.90
2022-09-23T19:14:12.198Z,99.90
2022-09-23T19:16:40.414Z,99.90
2022-09-23T19:19:07.761Z,99.90
2022-09-23T19:21:34.955Z,99.90
2022-09-23T19:24:04.825Z,99.90
2022-09-23T19:26:36.693Z,99.90
2022-09-23T19:29:04.608Z,99.90
2022-09-23T19:31:35.098Z,99.90
2022-09-23T19:34:10.360Z,99.90
2022-09-23T19:36:40.061Z,99.90
2022-09-23T19:39:16.181Z,99.90
2022-09-23T19:41:42.957Z,99.90
2022-09-23T19:44:10.307Z,99.90
2022-09-23T19:46:39.103Z,99.90
2022-09-23T19:49:07.042Z,99.90
2022-09-23T19:51:34.528Z,99.90
2022-09-23T19:54:02.085Z,99.90
2022-09-23T19:56:30.194Z,99.90
2022-09-23T19:58:58.268Z,99.90
2022-09-23T20:01:27.206Z,99.90
2022-09-23T20:03:53.985Z,99.90
2022-09-23T20:06:21.638Z,99.90
2022-09-23T20:08:49.406Z,99.90
2022-09-23T20:11:19.503Z,99.90
2022-09-23T20:13:47.554Z,99.90
2022-09-23T20:16:19.255Z,99.90
2022-09-23T20:18:47.021Z,99.90
2022-09-23T20:21:15.505Z,99.90
2022-09-23T20:23:45.098Z,99.90
2022-09-23T20:26:30.240Z,99.90
2022-09-23T20:28:57.033Z,99.90
2022-09-23T20:31:25.450Z,99.90
2022-09-23T20:33:55.617Z,99.90
2022-09-23T20:36:22.729Z,99.90
2022-09-23T20:38:54.499Z,99.90
2022-09-23T20:41:21.517Z,99.90
2022-09-23T20:43:51.860Z,99.90
2022-09-23T20:46:18.984Z,99.90
2022-09-23T20:48:47.356Z,99.90
2022-09-23T20:51:14.146Z,99.90
2022-09-23T20:53:41.353Z,99.90
2022-09-23T20:56:08.300Z,99.90
2022-09-23T20:58:39.086Z,99.90
2022-09-23T21:01:10.653Z,99.90
2022-09-23T21:03:42.677Z,99.90
2022-09-23T21:06:11.513Z,99.90
2022-09-23T21:08:39.331Z,99.90
2022-09-23T21:11:09.516Z,99.90
2022-09-23T21:13:36.912Z,99.90
2022-09-23T21:16:09.673Z,99.90
2022-09-23T21:18:37.992Z,99.90
2022-09-23T21:21:05.181Z,99.90
2022-09-23T21:23:38.202Z,99.90
2022-09-23T21:26:10.209Z,99.90
2022-09-23T21:28:38.993Z,99.90
2022-09-23T21:31:11.063Z,99.90
2022-09-23T21:33:38.098Z,99.90
2022-09-23T21:36:06.986Z,99.90
2022-09-23T21:38:37.656Z,99.90
2022-09-23T21:41:07.470Z,99.90
2022-09-23T21:43:35.985Z,99.90
2022-09-23T21:46:07.740Z,99.90
2022-09-23T21:48:36.938Z,99.90
2022-09-23T21:51:07.199Z,99.90
2022-09-23T21:53:36.787Z,99.90
2022-09-23T21:56:05.239Z,99.90
2022-09-23T21:58:33.911Z,99.90
2022-09-23T22:01:02.169Z,99.90
2022-09-23T22:03:29.150Z,99.90
2022-09-23T22:06:11.358Z,99.90
2022-09-23T22:08:41.282Z,99.90
2022-09-23T22:11:29.700Z,99.90
2022-09-23T22:13:57.492Z,99.90
2022-09-23T22:16:24.929Z,99.90
2022-09-23T22:18:55.131Z,99.90
2022-09-23T22:21:23.094Z,99.90
2022-09-23T22:23:57.173Z,99.90
2022-09-23T22:26:24.786Z,99.90
2022-09-23T22:29:09.984Z,99.90
2022-09-23T22:31:55.441Z,99.90
2022-09-23T22:34:48.540Z,99.90
2022-09-23T22:37:17.816Z,99.90
2022-09-23T22:39:45.150Z,99.90
2022-09-23T22:42:15.728Z,99.90
2022-09-23T22:44:42.758Z,99.90
2022-09-23T22:47:10.261Z,99.90
2022-09-23T22:49:37.226Z,99.90
2022-09-23T22:52:07.803Z,99.90
2022-09-23T22:54:35.082Z,99.90
2022-09-23T22:57:05.087Z,99.90
2022-09-23T22:59:31.871Z,99.90
2022-09-23T23:02:02.827Z,99.90
2022-09-23T23:04:30.424Z,99.90
2022-09-23T23:06:58.731Z,99.90
2022-09-23T23:09:26.035Z,99.90
2022-09-23T23:11:52.814Z,99.90
2022-09-23T23:14:20.330Z,99.90
2022-09-23T23:16:47.723Z,99.90
2022-09-23T23:19:17.271Z,99.90
2022-09-23T23:21:45.400Z,99.90
2022-09-23T23:24:23.279Z,99.90
2022-09-23T23:26:51.372Z,99.90
2022-09-23T23:29:19.681Z,99.90
2022-09-23T23:31:47.013Z,99.90
2022-09-23T23:34:19.623Z,99.90
2022-09-23T23:36:47.927Z,99.90
2022-09-23T23:39:15.001Z,99.90
2022-09-23T23:41:42.433Z,99.90
2022-09-23T23:44:11.577Z,99.90
2022-09-23T23:46:38.727Z,99.90
2022-09-23T23:49:06.772Z,99.90
2022-09-23T23:51:33.573Z,99.90
2022-09-23T23:54:00.959Z,99.90
2022-09-23T23:56:30.219Z,99.90
2022-09-23T23:58:58.969Z,99.90
